createdAt,value
2019-05-17T00:01:17.344Z,51.30
2019-05-17T00:03:47.162Z,51.40
2019-05-17T00:06:16.995Z,51.50
2019-05-17T00:08:47.271Z,51.60
2019-05-17T00:11:16.913Z,51.80
2019-05-17T00:13:46.648Z,51.80
2019-05-17T00:16:17.458Z,51.70
2019-05-17T00:18:47.206Z,51.60
2019-05-17T00:21:17.074Z,51.80
2019-05-17T00:23:46.958Z,51.80
2019-05-17T00:26:16.500Z,51.70
2019-05-17T00:28:46.923Z,51.70
2019-05-17T00:31:17.128Z,51.80
2019-05-17T00:33:47.119Z,51.70
2019-05-17T00:36:17.800Z,51.60
2019-05-17T00:38:50.984Z,51.60
2019-05-17T00:41:18.235Z,51.80
2019-05-17T00:43:47.241Z,51.90
2019-05-17T00:46:17.205Z,52.10
2019-05-17T00:48:46.684Z,52.40
2019-05-17T00:51:16.717Z,52.60
2019-05-17T00:53:46.786Z,52.60
2019-05-17T00:56:17.095Z,52.80
2019-05-17T00:58:47.811Z,53.00
2019-05-17T01:01:17.727Z,53.10
2019-05-17T01:03:47.677Z,53.30
2019-05-17T01:06:17.020Z,53.30
2019-05-17T01:08:59.397Z,53.40
2019-05-17T01:11:17.999Z,53.60
2019-05-17T01:13:47.539Z,53.80
2019-05-17T01:16:16.927Z,53.80
2019-05-17T01:18:47.004Z,53.90
2019-05-17T01:21:17.382Z,53.80
2019-05-17T01:23:46.856Z,53.90
2019-05-17T01:26:18.265Z,54.00
2019-05-17T01:28:47.337Z,54.00
2019-05-17T01:31:17.264Z,54.00
2019-05-17T01:33:47.177Z,54.00
2019-05-17T01:36:17.291Z,53.90
2019-05-17T01:38:46.879Z,53.90
2019-05-17T01:41:17.355Z,53.90
2019-05-17T01:43:47.455Z,53.70
2019-05-17T01:46:17.227Z,53.70
2019-05-17T01:48:47.121Z,53.80
2019-05-17T01:51:17.092Z,53.90
2019-05-17T01:53:47.068Z,54.00
2019-05-17T01:56:17.037Z,54.00
2019-05-17T01:58:46.967Z,54.00
2019-05-17T02:01:17.123Z,54.10
2019-05-17T02:03:47.038Z,54.20
2019-05-17T02:06:16.932Z,54.20
2019-05-17T02:08:47.487Z,54.30
2019-05-17T02:11:18.448Z,54.20
2019-05-17T02:13:48.227Z,54.10
2019-05-17T02:16:17.732Z,54.10
2019-05-17T02:18:47.466Z,54.00
2019-05-17T02:21:16.951Z,53.70
2019-05-17T02:23:47.057Z,53.50
2019-05-17T02:26:17.361Z,53.30
2019-05-17T02:28:47.072Z,52.50
2019-05-17T02:31:16.137Z,50.80
2019-05-17T02:33:45.893Z,48.80
2019-05-17T02:36:15.030Z,47.80
2019-05-17T02:38:44.104Z,45.40
2019-05-17T02:41:14.356Z,44.10
2019-05-17T02:43:45.549Z,43.40
2019-05-17T02:46:14.983Z,42.90
2019-05-17T02:48:44.037Z,43.10
2019-05-17T02:51:13.609Z,43.30
2019-05-17T02:53:43.205Z,43.80
2019-05-17T02:56:13.672Z,44.20
2019-05-17T02:58:44.035Z,44.20
2019-05-17T03:02:12.591Z,44.20
2019-05-17T03:04:43.278Z,44.00
2019-05-17T03:07:13.529Z,43.40
2019-05-17T03:09:43.402Z,42.90
2019-05-17T03:12:12.954Z,42.40
2019-05-17T03:14:43.303Z,41.90
2019-05-17T03:17:14.051Z,41.10
2019-05-17T03:19:43.969Z,40.40
2019-05-17T03:22:13.551Z,40.00
2019-05-17T03:24:43.969Z,40.30
2019-05-17T03:27:13.966Z,38.80
2019-05-17T03:29:43.664Z,37.80
2019-05-17T03:32:17.439Z,36.40
2019-05-17T03:34:46.850Z,34.90
2019-05-17T03:37:16.475Z,33.10
2019-05-17T03:39:46.538Z,31.80
2019-05-17T03:42:16.036Z,30.90
2019-05-17T03:44:45.493Z,30.00
2019-05-17T03:47:14.628Z,29.30
2019-05-17T03:49:44.050Z,28.40
2019-05-17T03:52:13.819Z,27.70
2019-05-17T03:54:43.171Z,28.00
2019-05-17T03:57:13.546Z,27.20
2019-05-17T03:59:43.276Z,27.10
2019-05-17T04:02:12.811Z,27.10
2019-05-17T04:04:42.945Z,26.90
2019-05-17T04:07:12.877Z,25.80
2019-05-17T04:09:43.756Z,25.00
2019-05-17T04:12:13.693Z,23.80
2019-05-17T04:14:43.142Z,23.30
2019-05-17T04:17:13.128Z,22.70
2019-05-17T04:19:43.369Z,22.70
2019-05-17T04:22:13.778Z,22.50
2019-05-17T04:24:44.109Z,22.10
2019-05-17T04:27:14.302Z,21.80
2019-05-17T04:29:43.947Z,21.70
2019-05-17T04:32:13.292Z,21.60
2019-05-17T04:34:43.821Z,21.90
2019-05-17T04:37:13.760Z,21.50
2019-05-17T04:39:43.351Z,21.20
2019-05-17T04:42:13.611Z,20.60
2019-05-17T04:44:43.916Z,20.40
2019-05-17T04:47:13.532Z,20.10
2019-05-17T04:49:44.150Z,19.60
2019-05-17T04:52:14.885Z,19.30
2019-05-17T04:54:44.453Z,18.80
2019-05-17T04:57:14.289Z,18.90
2019-05-17T04:59:43.932Z,18.80
2019-05-17T05:02:13.274Z,19.00
2019-05-17T05:04:43.578Z,18.70
2019-05-17T05:07:13.656Z,18.80
2019-05-17T05:09:43.551Z,18.70
2019-05-17T05:12:13.056Z,18.50
2019-05-17T05:14:43.140Z,17.80
2019-05-17T05:17:12.976Z,17.20
2019-05-17T05:19:42.386Z,17.10
2019-05-17T05:22:13.506Z,16.80
2019-05-17T05:24:43.489Z,16.70
2019-05-17T05:27:13.001Z,16.90
2019-05-17T05:29:42.436Z,17.00
2019-05-17T05:32:12.085Z,17.10
2019-05-17T05:34:42.951Z,17.10
2019-05-17T05:37:15.364Z,16.30
2019-05-17T05:39:44.975Z,15.50
2019-05-17T05:42:14.705Z,15.70
2019-05-17T05:44:44.348Z,15.60
2019-05-17T05:47:13.963Z,15.50
2019-05-17T05:49:43.694Z,15.20
2019-05-17T05:52:12.935Z,15.00
2019-05-17T05:54:42.157Z,14.50
2019-05-17T05:57:12.643Z,14.20
2019-05-17T05:59:43.520Z,13.70
2019-05-17T06:02:12.527Z,13.60
2019-05-17T06:04:42.434Z,13.50
2019-05-17T06:07:12.863Z,13.70
2019-05-17T06:09:42.366Z,14.20
2019-05-17T06:12:23.397Z,14.40
2019-05-17T06:14:42.080Z,13.90
2019-05-17T06:17:12.632Z,13.30
2019-05-17T06:19:42.183Z,13.40
2019-05-17T06:22:12.039Z,13.30
2019-05-17T06:24:42.511Z,13.70
2019-05-17T06:27:12.333Z,13.90
2019-05-17T06:29:41.592Z,13.70
2019-05-17T06:32:11.893Z,13.60
2019-05-17T06:34:42.225Z,13.50
2019-05-17T06:37:12.918Z,13.10
2019-05-17T06:39:42.040Z,13.00
2019-05-17T06:42:12.099Z,13.00
2019-05-17T06:44:41.841Z,13.50
2019-05-17T06:47:11.922Z,13.20
2019-05-17T06:49:42.433Z,13.70
2019-05-17T06:52:11.692Z,13.10
2019-05-17T06:54:41.761Z,13.30
2019-05-17T06:57:12.769Z,13.20
2019-05-17T06:59:41.483Z,13.10
2019-05-17T07:02:10.503Z,13.30
2019-05-17T07:04:39.626Z,13.90
2019-05-17T07:07:26.764Z,13.80
2019-05-17T07:10:00.588Z,13.90
2019-05-17T07:12:30.745Z,13.40
2019-05-17T07:15:01.705Z,13.50
2019-05-17T07:17:30.546Z,14.00
2019-05-17T07:19:59.840Z,14.20
2019-05-17T07:22:29.705Z,14.30
2019-05-17T07:24:59.710Z,14.10
2019-05-17T07:27:40.997Z,14.20
2019-05-17T07:29:59.365Z,14.80
2019-05-17T07:32:29.738Z,15.30
2019-05-17T07:35:00.079Z,15.20
2019-05-17T07:37:30.389Z,15.60
2019-05-17T07:40:04.717Z,15.50
2019-05-17T07:42:29.965Z,15.80
2019-05-17T07:45:00.565Z,15.80
2019-05-17T07:47:29.535Z,15.60
2019-05-17T07:50:00.963Z,15.90
2019-05-17T07:52:29.981Z,16.50
2019-05-17T07:55:02.290Z,17.40
2019-05-17T07:57:30.013Z,17.80
2019-05-17T07:59:59.945Z,18.00
2019-05-17T08:02:30.620Z,17.80
2019-05-17T08:05:00.540Z,18.10
2019-05-17T08:07:30.201Z,18.70
2019-05-17T08:10:00.107Z,19.50
2019-05-17T08:12:30.590Z,20.30
2019-05-17T08:14:59.941Z,20.80
2019-05-17T08:17:30.497Z,21.00
2019-05-17T08:20:00.594Z,20.90
2019-05-17T08:22:29.793Z,20.90
2019-05-17T08:25:00.026Z,20.90
2019-05-17T08:27:29.689Z,20.30
2019-05-17T08:29:59.746Z,19.30
2019-05-17T08:32:31.349Z,18.70
2019-05-17T08:35:00.279Z,19.00
2019-05-17T08:37:30.141Z,18.60
2019-05-17T08:40:00.057Z,18.20
2019-05-17T08:42:30.016Z,18.20
2019-05-17T08:45:00.234Z,19.00
2019-05-17T08:47:30.038Z,19.40
2019-05-17T08:50:00.476Z,20.70
2019-05-17T08:52:29.672Z,21.40
2019-05-17T08:55:00.404Z,21.70
2019-05-17T08:57:30.285Z,21.80
2019-05-17T09:00:00.840Z,22.10
2019-05-17T09:02:30.175Z,22.10
2019-05-17T09:05:00.463Z,22.40
2019-05-17T09:07:31.504Z,22.90
2019-05-17T09:10:01.781Z,23.10
2019-05-17T09:12:31.071Z,23.00
2019-05-17T09:15:00.482Z,22.80
2019-05-17T09:17:29.982Z,22.80
2019-05-17T09:20:00.687Z,22.70
2019-05-17T09:22:30.546Z,22.40
2019-05-17T09:24:59.666Z,20.80
2019-05-17T09:27:30.045Z,20.90
2019-05-17T09:30:00.053Z,21.10
2019-05-17T09:32:29.617Z,20.90
2019-05-17T09:35:00.396Z,21.10
2019-05-17T09:37:30.322Z,21.50
2019-05-17T09:39:59.847Z,21.70
2019-05-17T09:42:29.964Z,21.70
2019-05-17T09:45:00.411Z,21.80
2019-05-17T09:47:30.077Z,21.80
2019-05-17T09:50:00.549Z,22.30
2019-05-17T09:52:29.735Z,22.60
2019-05-17T09:55:00.551Z,22.90
2019-05-17T09:57:29.774Z,23.10
2019-05-17T10:00:00.205Z,22.90
2019-05-17T10:02:29.217Z,23.00
2019-05-17T10:04:59.841Z,23.00
2019-05-17T10:07:29.873Z,23.10
2019-05-17T10:09:59.759Z,23.20
2019-05-17T10:12:29.012Z,22.90
2019-05-17T10:15:00.277Z,22.70
2019-05-17T10:17:29.397Z,22.50
2019-05-17T10:19:59.951Z,23.10
2019-05-17T10:22:30.347Z,22.70
2019-05-17T10:25:00.319Z,22.50
2019-05-17T10:27:30.246Z,22.70
2019-05-17T10:29:59.524Z,22.90
2019-05-17T10:32:30.979Z,22.90
2019-05-17T10:35:00.279Z,23.30
2019-05-17T10:37:30.303Z,23.20
2019-05-17T10:39:59.335Z,23.50
2019-05-17T10:42:30.583Z,23.00
2019-05-17T10:44:59.921Z,23.30
2019-05-17T10:47:30.158Z,24.00
2019-05-17T10:49:59.357Z,23.80
2019-05-17T10:52:29.937Z,24.10
2019-05-17T10:54:59.888Z,24.80
2019-05-17T10:57:30.324Z,25.20
2019-05-17T10:59:59.385Z,25.30
2019-05-17T11:02:30.416Z,25.50
2019-05-17T11:05:00.786Z,25.40
2019-05-17T11:07:29.257Z,25.40
2019-05-17T11:10:00.344Z,25.40
2019-05-17T11:12:28.610Z,25.30
2019-05-17T11:15:10.349Z,25.20
2019-05-17T11:17:27.959Z,25.10
2019-05-17T11:19:56.914Z,25.10
2019-05-17T11:22:25.755Z,25.20
2019-05-17T11:24:54.597Z,25.40
2019-05-17T11:27:23.448Z,25.70
2019-05-17T11:29:52.367Z,25.90
2019-05-17T11:32:21.192Z,25.90
2019-05-17T11:34:50.231Z,26.00
2019-05-17T11:37:19.230Z,26.00
2019-05-17T11:39:48.109Z,25.80
2019-05-17T11:42:17.015Z,25.70
2019-05-17T11:44:46.060Z,25.70
2019-05-17T11:47:14.874Z,25.70
2019-05-17T11:49:43.791Z,25.90
2019-05-17T11:52:12.706Z,25.90
2019-05-17T11:54:41.602Z,26.10
2019-05-17T11:57:12.311Z,26.30
2019-05-17T11:59:41.063Z,26.80
2019-05-17T12:02:09.928Z,26.70
2019-05-17T12:04:38.727Z,26.70
2019-05-17T12:07:07.573Z,26.80
2019-05-17T12:09:37.862Z,26.80
2019-05-17T12:12:06.820Z,26.70
2019-05-17T12:14:35.658Z,26.60
2019-05-17T12:17:04.593Z,26.60
2019-05-17T12:19:36.914Z,26.90
2019-05-17T12:22:03.994Z,27.00
2019-05-17T12:24:32.927Z,27.00
2019-05-17T12:27:01.703Z,27.10
2019-05-17T12:29:30.524Z,27.50
2019-05-17T12:31:59.306Z,27.60
2019-05-17T12:34:28.141Z,27.70
2019-05-17T12:36:57.632Z,27.80
2019-05-17T12:39:26.471Z,27.80
2019-05-17T12:41:55.329Z,27.60
2019-05-17T12:44:24.246Z,27.90
2019-05-17T12:46:53.045Z,27.80
2019-05-17T12:49:21.896Z,27.60
2019-05-17T12:51:50.780Z,27.80
2019-05-17T12:54:19.723Z,27.70
2019-05-17T12:56:48.551Z,27.90
2019-05-17T12:59:17.578Z,27.90
2019-05-17T13:01:46.393Z,28.00
2019-05-17T13:04:15.318Z,28.00
2019-05-17T13:06:44.081Z,27.90
2019-05-17T13:09:12.876Z,28.10
2019-05-17T13:11:41.733Z,28.20
2019-05-17T13:14:10.573Z,28.30
2019-05-17T13:16:42.724Z,28.40
2019-05-17T13:19:11.579Z,28.50
2019-05-17T13:21:40.432Z,28.60
2019-05-17T13:24:09.317Z,28.50
2019-05-17T13:26:38.199Z,28.60
2019-05-17T13:29:07.101Z,28.70
2019-05-17T13:31:35.904Z,28.80
2019-05-17T13:34:04.789Z,28.70
2019-05-17T13:36:33.655Z,28.70
2019-05-17T13:39:02.550Z,28.80
2019-05-17T13:41:31.365Z,28.90
2019-05-17T13:44:03.093Z,28.90
2019-05-17T13:46:33.493Z,29.00
2019-05-17T13:49:02.480Z,29.10
2019-05-17T13:51:31.704Z,28.90
2019-05-17T13:54:00.590Z,28.90
2019-05-17T13:56:29.442Z,28.90
2019-05-17T13:58:58.363Z,28.90
2019-05-17T14:01:27.185Z,28.80
2019-05-17T14:03:56.444Z,28.70
2019-05-17T14:06:25.358Z,28.60
2019-05-17T14:08:54.171Z,28.80
2019-05-17T14:11:23.003Z,28.80
2019-05-17T14:13:51.758Z,28.90
2019-05-17T14:16:20.611Z,28.60
2019-05-17T14:18:49.480Z,28.50
2019-05-17T14:21:18.301Z,28.40
2019-05-17T14:23:47.150Z,28.30
2019-05-17T14:26:15.989Z,28.00
2019-05-17T14:28:44.813Z,27.90
2019-05-17T14:31:13.615Z,28.00
2019-05-17T14:33:42.418Z,28.60
2019-05-17T14:36:11.258Z,28.00
2019-05-17T14:38:40.015Z,27.90
2019-05-17T14:41:09.189Z,28.10
2019-05-17T14:43:38.257Z,28.10
2019-05-17T14:46:07.528Z,28.10
2019-05-17T14:48:36.446Z,27.60
2019-05-17T14:51:05.229Z,27.60
2019-05-17T14:53:34.044Z,27.20
2019-05-17T14:56:02.928Z,27.60
2019-05-17T14:58:31.739Z,26.90
2019-05-17T15:01:00.505Z,26.40
2019-05-17T15:03:29.411Z,26.40
2019-05-17T15:05:58.184Z,26.10
2019-05-17T15:08:27.017Z,26.20
2019-05-17T15:10:55.941Z,26.30
2019-05-17T15:13:24.805Z,26.40
2019-05-17T15:15:53.633Z,26.60
2019-05-17T15:18:22.463Z,26.50
2019-05-17T15:20:51.327Z,26.80
2019-05-17T15:23:20.157Z,27.20
2019-05-17T15:25:49.052Z,27.30
2019-05-17T15:28:17.888Z,27.30
2019-05-17T15:30:46.719Z,27.40
2019-05-17T15:33:15.928Z,27.50
2019-05-17T15:35:44.691Z,27.30
2019-05-17T15:38:13.527Z,27.40
2019-05-17T15:40:42.781Z,27.40
2019-05-17T15:43:11.724Z,26.90
2019-05-17T15:45:40.661Z,26.70
2019-05-17T15:48:09.746Z,26.20
2019-05-17T15:50:38.644Z,26.30
2019-05-17T15:53:07.541Z,26.20
2019-05-17T15:55:36.870Z,26.40
2019-05-17T15:58:06.680Z,26.60
2019-05-17T16:00:36.134Z,26.80
2019-05-17T16:03:05.586Z,26.90
2019-05-17T16:05:35.061Z,26.90
2019-05-17T16:08:04.483Z,27.10
2019-05-17T16:10:33.851Z,27.20
2019-05-17T16:13:03.732Z,27.50
2019-05-17T16:15:33.061Z,27.60
2019-05-17T16:18:02.442Z,27.80
2019-05-17T16:20:31.559Z,27.80
2019-05-17T16:23:01.062Z,28.00
2019-05-17T16:25:39.261Z,28.10
2019-05-17T16:28:08.997Z,28.20
2019-05-17T16:30:38.098Z,28.20
2019-05-17T16:33:07.227Z,28.00
2019-05-17T16:35:36.164Z,28.00
2019-05-17T16:38:05.643Z,28.00
2019-05-17T16:40:35.203Z,28.00
2019-05-17T16:43:17.176Z,28.10
2019-05-17T16:45:35.887Z,28.10
2019-05-17T16:51:21.325Z,28.00
2019-05-17T16:53:50.517Z,28.30
2019-05-17T16:56:21.129Z,28.50
2019-05-17T16:58:50.518Z,28.20
2019-05-17T17:01:20.168Z,28.00
2019-05-17T17:03:49.842Z,28.10
2019-05-17T17:06:19.526Z,28.00
2019-05-17T17:08:49.053Z,28.10
2019-05-17T17:11:18.102Z,28.20
2019-05-17T17:13:47.622Z,27.60
2019-05-17T17:16:17.184Z,27.00
2019-05-17T17:18:46.559Z,27.40
2019-05-17T17:21:19.197Z,27.10
2019-05-17T17:23:48.566Z,27.20
2019-05-17T17:26:17.614Z,27.30
2019-05-17T17:28:46.642Z,27.40
2019-05-17T17:31:17.328Z,27.40
2019-05-17T17:33:46.384Z,27.20
2019-05-17T17:36:18.929Z,27.30
2019-05-17T17:38:47.056Z,27.50
2019-05-17T17:41:17.088Z,27.40
2019-05-17T17:43:57.993Z,27.00
2019-05-17T17:46:18.003Z,27.10
2019-05-17T17:48:47.679Z,27.00
2019-05-17T17:54:45.359Z,26.80
2019-05-17T17:57:15.133Z,27.00
2019-05-17T17:59:44.695Z,27.40
2019-05-17T18:02:14.168Z,27.70
2019-05-17T18:04:43.807Z,27.70
2019-05-17T18:07:13.442Z,27.50
2019-05-17T18:09:42.982Z,27.60
2019-05-17T18:12:12.349Z,27.60
2019-05-17T18:14:44.535Z,27.90
2019-05-17T18:17:13.572Z,28.00
2019-05-17T18:19:43.178Z,28.30
2019-05-17T18:22:12.706Z,28.50
2019-05-17T18:24:42.394Z,28.70
2019-05-17T18:27:11.979Z,28.90
2019-05-17T18:29:41.626Z,29.30
2019-05-17T18:32:11.037Z,29.60
2019-05-17T18:34:41.494Z,30.10
2019-05-17T18:37:12.022Z,30.30
2019-05-17T18:39:41.615Z,31.20
2019-05-17T18:42:10.768Z,31.50
2019-05-17T18:44:40.592Z,32.20
2019-05-17T18:47:10.562Z,32.60
2019-05-17T18:49:40.446Z,33.00
2019-05-17T18:52:11.026Z,33.50
2019-05-17T18:54:40.539Z,33.70
2019-05-17T18:57:09.797Z,34.00
2019-05-17T18:59:38.888Z,34.20
2019-05-17T19:02:08.296Z,34.30
2019-05-17T19:04:38.214Z,34.60
2019-05-17T19:07:07.746Z,34.90
2019-05-17T19:09:37.314Z,35.40
2019-05-17T19:12:07.571Z,35.50
2019-05-17T19:14:43.106Z,35.70
2019-05-17T19:17:08.429Z,36.50
2019-05-17T19:19:38.002Z,36.20
2019-05-17T19:22:07.665Z,36.30
2019-05-17T19:24:36.716Z,36.60
2019-05-17T19:27:06.573Z,36.80
2019-05-17T19:29:36.378Z,37.00
2019-05-17T19:32:06.361Z,37.30
2019-05-17T19:34:36.259Z,38.20
2019-05-17T19:37:05.976Z,37.70
2019-05-17T19:39:36.159Z,37.90
2019-05-17T19:42:05.808Z,38.10
2019-05-17T19:44:35.223Z,38.30
2019-05-17T19:47:04.985Z,38.40
2019-05-17T19:49:34.532Z,38.60
2019-05-17T19:52:04.384Z,38.70
2019-05-17T19:54:34.073Z,38.90
2019-05-17T19:57:03.415Z,39.00
2019-05-17T19:59:32.885Z,39.00
2019-05-17T20:02:02.566Z,39.10
2019-05-17T20:04:32.171Z,39.10
2019-05-17T20:07:01.233Z,39.30
2019-05-17T20:09:30.772Z,39.30
2019-05-17T20:12:00.465Z,39.50
2019-05-17T20:14:30.147Z,39.60
2019-05-17T20:16:59.723Z,39.80
2019-05-17T20:19:28.769Z,39.90
2019-05-17T20:21:58.512Z,40.00
2019-05-17T20:24:27.467Z,40.10
2019-05-17T20:26:56.624Z,40.20
2019-05-17T20:29:26.415Z,40.20
2019-05-17T20:31:55.626Z,40.20
2019-05-17T20:34:24.899Z,40.30
2019-05-17T20:36:54.080Z,40.40
2019-05-17T20:39:23.705Z,40.50
2019-05-17T20:41:52.757Z,40.60
2019-05-17T20:44:22.262Z,40.60
2019-05-17T20:46:51.355Z,40.70
2019-05-17T20:49:20.918Z,40.70
2019-05-17T20:51:50.616Z,40.70
2019-05-17T20:54:20.134Z,40.70
2019-05-17T20:56:49.951Z,40.80
2019-05-17T20:59:19.456Z,40.90
2019-05-17T21:01:49.200Z,40.90
2019-05-17T21:04:18.241Z,40.90
2019-05-17T21:06:48.050Z,41.00
2019-05-17T21:09:17.804Z,40.90
2019-05-17T21:11:46.716Z,41.00
2019-05-17T21:14:16.402Z,41.00
2019-05-17T21:16:45.876Z,41.00
2019-05-17T21:19:15.400Z,41.10
2019-05-17T21:21:44.348Z,41.20
2019-05-17T21:24:13.431Z,41.30
2019-05-17T21:26:42.411Z,41.30
2019-05-17T21:29:11.895Z,41.40
2019-05-17T21:31:41.338Z,41.50
2019-05-17T21:34:10.773Z,42.20
2019-05-17T21:36:40.172Z,41.50
2019-05-17T21:39:09.159Z,41.50
2019-05-17T21:41:38.700Z,41.50
2019-05-17T21:44:08.258Z,41.60
2019-05-17T21:46:37.770Z,41.60
2019-05-17T21:49:07.487Z,41.60
2019-05-17T21:51:37.178Z,41.60
2019-05-17T21:54:06.706Z,41.50
2019-05-17T21:56:36.152Z,41.60
2019-05-17T21:59:05.835Z,41.70
2019-05-17T22:01:34.908Z,42.40
2019-05-17T22:04:04.192Z,41.80
2019-05-17T22:06:33.242Z,41.80
2019-05-17T22:09:02.193Z,41.80
2019-05-17T22:11:31.662Z,42.00
2019-05-17T22:14:00.864Z,42.10
2019-05-17T22:16:29.890Z,42.60
2019-05-17T22:18:58.913Z,42.40
2019-05-17T22:21:28.390Z,42.60
2019-05-17T22:23:57.871Z,42.70
2019-05-17T22:26:27.355Z,42.80
2019-05-17T22:28:56.938Z,43.00
2019-05-17T22:31:26.550Z,43.00
2019-05-17T22:33:55.976Z,43.10
2019-05-17T22:36:25.397Z,43.10
2019-05-17T22:38:54.489Z,43.20
2019-05-17T22:41:24.043Z,43.20
2019-05-17T22:43:53.456Z,43.40
2019-05-17T22:46:35.037Z,43.40
2019-05-17T22:48:53.243Z,43.50
2019-05-17T22:51:22.772Z,43.60
2019-05-17T22:53:51.793Z,44.50
2019-05-17T22:56:21.384Z,43.90
2019-05-17T22:58:50.803Z,44.10
2019-05-17T23:01:19.813Z,44.20
2019-05-17T23:03:49.320Z,44.20
2019-05-17T23:06:18.873Z,44.40
2019-05-17T23:08:47.828Z,44.40
2019-05-17T23:11:17.250Z,44.40
2019-05-17T23:13:46.295Z,44.60
2019-05-17T23:16:15.675Z,44.70
2019-05-17T23:18:46.775Z,44.90
2019-05-17T23:21:16.384Z,44.90
2019-05-17T23:23:45.923Z,45.00
2019-05-17T23:26:15.335Z,45.00
2019-05-17T23:28:44.315Z,45.10
2019-05-17T23:31:13.827Z,45.10
2019-05-17T23:33:42.831Z,45.10
2019-05-17T23:36:12.215Z,45.20
2019-05-17T23:38:41.327Z,45.30
2019-05-17T23:41:10.509Z,45.40
2019-05-17T23:43:39.498Z,45.50
2019-05-17T23:46:08.489Z,45.60
2019-05-17T23:48:38.253Z,45.60
2019-05-17T23:51:07.802Z,45.70
2019-05-17T23:53:37.315Z,45.70
2019-05-17T23:56:06.383Z,45.70
2019-05-17T23:58:35.846Z,45.80
